Time;durP1;ratioP1;P1;durP2;ratioP2;P2;SDS_P1;SDS_P2;PMS_P1;PMS_P2;Temp;Humidity;BMP_temperature;BMP_pressure;BME280_temperature;BME280_humidity;BME280_pressure;Samples;Min_cycle;Max_cycle;Signal;HPM_P1;HPM_P2
2023/10/13 00:00:29;;;;;;;9.02;5.53;;;20.50;64.40;;;;;;5039726;28;20049;-50
2023/10/13 00:03:00;;;;;;;10.73;5.32;;;20.40;64.50;;;;;;5039033;28;20044;-50
2023/10/13 00:05:30;;;;;;;11.00;5.18;;;20.40;64.50;;;;;;5039955;28;20064;-52
2023/10/13 00:08:00;;;;;;;7.32;5.05;;;20.50;64.60;;;;;;5021961;28;20057;-50
2023/10/13 00:10:28;;;;;;;10.85;4.70;;;20.40;64.60;;;;;;5038230;28;20076;-51
2023/10/13 00:13:05;;;;;;;11.80;4.70;;;20.40;64.60;;;;;;5037361;28;20064;-47
2023/10/13 00:15:38;;;;;;;9.85;5.25;;;20.40;64.50;;;;;;5042472;28;20416;-50
2023/10/13 00:18:12;;;;;;;9.13;4.88;;;20.40;64.50;;;;;;5041045;28;20060;-51
2023/10/13 00:20:48;;;;;;;10.00;4.85;;;20.40;64.50;;;;;;5023235;28;20041;-45
2023/10/13 00:23:20;;;;;;;13.70;5.25;;;20.40;64.60;;;;;;5012261;28;20045;-48
2023/10/13 00:25:56;;;;;;;10.40;5.43;;;20.40;64.60;;;;;;5019051;28;20060;-51
2023/10/13 00:28:25;;;;;;;8.80;5.13;;;20.40;64.60;;;;;;5020265;28;20057;-48
2023/10/13 00:30:59;;;;;;;9.95;5.03;;;20.40;64.50;;;;;;5020975;28;20056;-52
2023/10/13 00:33:27;;;;;;;9.48;4.88;;;20.40;64.50;;;;;;5018748;28;20466;-49
2023/10/13 00:35:57;;;;;;;16.40;5.35;;;20.40;64.50;;;;;;5020696;28;20382;-50
2023/10/13 00:38:27;;;;;;;8.05;5.05;;;20.40;64.50;;;;;;5020592;28;20053;-49
2023/10/13 00:40:55;;;;;;;12.98;5.20;;;20.40;64.50;;;;;;5018540;28;20390;-51
2023/10/13 00:43:32;;;;;;;12.60;5.50;;;20.30;64.50;;;;;;5019837;28;20061;-50
2023/10/13 00:46:07;;;;;;;8.38;5.20;;;20.30;64.50;;;;;;5020955;28;20063;-51
2023/10/13 00:48:42;;;;;;;11.90;5.90;;;20.30;64.50;;;;;;5019392;28;20061;-46
2023/10/13 00:51:22;;;;;;;13.20;6.25;;;20.30;64.50;;;;;;5018808;28;20057;-47
2023/10/13 00:53:49;;;;;;;12.25;5.55;;;20.30;64.50;;;;;;5020154;28;20046;-49
2023/10/13 00:56:23;;;;;;;10.50;5.47;;;20.30;64.40;;;;;;5020964;28;20053;-49
2023/10/13 00:58:51;;;;;;;9.60;5.82;;;20.30;64.40;;;;;;5019895;28;20056;-51
2023/10/13 01:01:21;;;;;;;12.80;6.10;;;20.30;64.40;;;;;;5018362;28;20061;-49
2023/10/13 01:03:49;;;;;;;12.13;5.95;;;20.30;64.40;;;;;;5018746;28;20079;-43
2023/10/13 01:06:19;;;;;;;10.32;5.95;;;20.30;64.50;;;;;;5023718;28;20064;-45
2023/10/13 01:08:50;;;;;;;18.92;6.90;;;20.30;64.50;;;;;;5040997;28;20057;-47
2023/10/13 01:11:19;;;;;;;12.52;6.80;;;20.30;64.50;;;;;;5037905;28;20045;-43
2023/10/13 01:13:50;;;;;;;13.30;6.30;;;20.30;64.60;;;;;;5038702;28;20060;-43
2023/10/13 01:16:21;;;;;;;13.73;6.65;;;20.30;64.60;;;;;;5038305;28;20390;-47
2023/10/13 01:18:48;;;;;;;11.00;6.75;;;20.30;64.60;;;;;;5038866;28;20053;-49
2023/10/13 01:21:20;;;;;;;10.32;6.07;;;20.30;64.60;;;;;;5037762;28;20508;-47
2023/10/13 01:23:50;;;;;;;15.18;5.72;;;20.30;64.60;;;;;;5044444;28;20397;-42
2023/10/13 01:26:23;;;;;;;14.65;6.35;;;20.30;64.70;;;;;;5042265;28;20048;-43
2023/10/13 01:28:50;;;;;;;12.45;5.80;;;20.20;64.60;;;;;;5043329;28;20497;-47
2023/10/13 01:31:29;;;;;;;12.23;6.30;;;20.20;64.60;;;;;;5042763;28;20382;-44
2023/10/13 01:33:58;;;;;;;12.32;6.70;;;20.20;64.70;;;;;;5041944;28;20524;-44
2023/10/13 01:36:27;;;;;;;12.35;6.95;;;20.20;64.70;;;;;;5043576;28;20408;-43
2023/10/13 01:38:55;;;;;;;15.98;7.18;;;20.30;64.70;;;;;;5044564;28;20442;-42
2023/10/13 01:41:22;;;;;;;15.63;6.80;;;20.30;64.80;;;;;;5042724;28;20053;-42
2023/10/13 01:43:51;;;;;;;10.85;6.70;;;20.30;64.80;;;;;;5043094;28;20737;-42
2023/10/13 01:46:21;;;;;;;11.63;7.22;;;20.20;64.70;;;;;;5043068;28;20386;-47
2023/10/13 01:48:48;;;;;;;14.00;7.15;;;20.20;64.70;;;;;;5042575;28;20045;-45
2023/10/13 01:51:15;;;;;;;12.95;7.00;;;20.20;64.70;;;;;;5041464;28;20585;-44
2023/10/13 01:53:43;;;;;;;13.60;7.25;;;20.20;64.80;;;;;;5045061;28;20064;-43
2023/10/13 01:56:10;;;;;;;13.05;6.38;;;20.30;64.90;;;;;;5043730;28;20060;-47
2023/10/13 01:58:41;;;;;;;14.32;7.25;;;20.20;64.80;;;;;;5042435;28;20067;-46
2023/10/13 02:01:09;;;;;;;15.70;6.90;;;20.20;64.90;;;;;;5042892;28;20053;-42
2023/10/13 02:03:41;;;;;;;11.60;7.97;;;20.20;64.90;;;;;;5040861;28;20052;-49
2023/10/13 02:06:10;;;;;;;11.02;6.50;;;20.20;64.90;;;;;;5042616;28;20052;-43
2023/10/13 02:08:42;;;;;;;11.95;6.93;;;20.20;65.00;;;;;;5025207;28;20049;-47
2023/10/13 02:11:10;;;;;;;11.85;6.60;;;20.20;65.10;;;;;;5041087;28;20057;-50
2023/10/13 02:13:41;;;;;;;13.20;7.25;;;20.20;65.10;;;;;;5042283;28;20508;-44
2023/10/13 02:16:11;;;;;;;12.50;6.93;;;20.20;65.20;;;;;;5042807;28;20477;-49
2023/10/13 02:18:41;;;;;;;12.13;7.38;;;20.20;65.20;;;;;;5040671;28;20056;-49
2023/10/13 02:21:13;;;;;;;18.70;7.35;;;20.20;65.20;;;;;;5041041;28;20048;-46
2023/10/13 02:23:44;;;;;;;13.95;7.63;;;20.20;65.20;;;;;;5042845;28;20052;-44
2023/10/13 02:26:15;;;;;;;13.77;7.57;;;20.20;65.30;;;;;;5043106;28;20052;-48
2023/10/13 02:28:43;;;;;;;15.55;7.72;;;20.20;65.30;;;;;;5042476;28;20045;-44
2023/10/13 02:31:11;;;;;;;14.75;7.28;;;20.20;65.30;;;;;;5041151;28;20520;-43
2023/10/13 02:33:44;;;;;;;13.10;7.93;;;20.20;65.40;;;;;;5040680;28;20053;-46
2023/10/13 02:36:12;;;;;;;12.18;7.70;;;20.20;65.40;;;;;;5043601;28;20052;-46
2023/10/13 02:38:46;;;;;;;18.48;8.60;;;20.20;65.40;;;;;;5043136;28;20115;-43
2023/10/13 02:41:20;;;;;;;13.67;8.03;;;20.20;65.40;;;;;;5040949;28;20049;-46
2023/10/13 02:43:46;;;;;;;18.35;8.60;;;20.20;65.50;;;;;;5041457;28;20067;-47
2023/10/13 02:46:15;;;;;;;14.48;8.68;;;20.20;65.50;;;;;;5041449;28;20055;-45
2023/10/13 02:48:45;;;;;;;15.35;9.02;;;20.20;65.60;;;;;;5040014;28;20053;-49
2023/10/13 02:51:17;;;;;;;16.17;8.80;;;20.20;65.60;;;;;;5040182;28;20055;-46
2023/10/13 02:53:47;;;;;;;16.02;7.65;;;20.20;65.70;;;;;;5042045;28;20049;-43
2023/10/13 02:56:20;;;;;;;17.13;8.27;;;20.20;65.80;;;;;;5041827;28;20524;-46
2023/10/13 02:58:53;;;;;;;18.13;8.43;;;20.10;65.80;;;;;;5040967;28;20059;-45
2023/10/13 03:01:22;;;;;;;16.27;8.02;;;20.10;65.90;;;;;;5041184;28;20490;-44
2023/10/13 03:03:51;;;;;;;13.10;8.30;;;20.20;65.90;;;;;;5041687;28;20057;-46
2023/10/13 03:06:23;;;;;;;12.02;7.97;;;20.20;66.00;;;;;;5041676;28;20048;-47
2023/10/13 03:08:50;;;;;;;10.57;7.88;;;20.20;66.10;;;;;;5037873;28;20417;-46
2023/10/13 03:11:21;;;;;;;17.23;8.20;;;20.20;66.10;;;;;;5040501;28;20048;-44
2023/10/13 03:13:51;;;;;;;13.88;8.02;;;20.20;66.10;;;;;;5041701;28;20390;-45
2023/10/13 03:16:19;;;;;;;19.52;8.68;;;20.20;66.20;;;;;;5038857;28;20041;-45
2023/10/13 03:18:55;;;;;;;15.52;8.48;;;20.20;66.10;;;;;;5038703;28;20436;-43
2023/10/13 03:21:29;;;;;;;14.15;8.07;;;20.20;66.20;;;;;;5034382;28;20068;-45
2023/10/13 03:24:03;;;;;;;11.40;7.03;;;20.20;66.20;;;;;;5041607;28;20053;-47
2023/10/13 03:26:36;;;;;;;21.70;9.05;;;20.20;66.20;;;;;;5040115;28;20052;-44
2023/10/13 03:29:06;;;;;;;13.88;8.02;;;20.30;66.30;;;;;;5038926;28;20061;-43
2023/10/13 03:31:36;;;;;;;13.20;7.93;;;20.20;66.20;;;;;;5039952;28;20053;-45
2023/10/13 03:34:10;;;;;;;18.42;8.70;;;20.20;66.20;;;;;;5038903;28;20127;-46
2023/10/13 03:39:27;;;;;;;16.65;8.77;;;20.20;66.30;;;;;;5045766;28;20429;-47
2023/10/13 03:41:59;;;;;;;18.13;9.50;;;20.20;66.20;;;;;;5040077;28;20045;-44
2023/10/13 03:44:30;;;;;;;18.38;8.45;;;20.30;66.40;;;;;;5040113;28;20890;-45
2023/10/13 03:47:08;;;;;;;16.17;8.32;;;20.30;66.30;;;;;;5037851;28;20048;-47
2023/10/13 03:49:38;;;;;;;18.50;10.25;;;20.30;66.30;;;;;;5039117;28;20064;-44
2023/10/13 03:52:05;;;;;;;19.10;9.43;;;20.30;66.40;;;;;;5040341;28;20053;-44
2023/10/13 03:54:34;;;;;;;19.42;9.65;;;20.30;66.40;;;;;;5039404;28;20996;-43
2023/10/13 03:57:10;;;;;;;15.85;9.10;;;20.30;66.40;;;;;;5023423;28;20049;-43
2023/10/13 03:59:39;;;;;;;20.40;9.23;;;20.30;66.40;;;;;;5040245;28;20061;-47
2023/10/13 04:02:13;;;;;;;19.00;9.68;;;20.30;66.40;;;;;;5038993;28;20099;-44
2023/10/13 04:04:48;;;;;;;17.17;9.75;;;20.30;66.50;;;;;;5039436;28;20107;-43
2023/10/13 04:15:43;;;;;;;23.92;9.75;;;20.30;66.60;;;;;;5045177;28;21984;-49
2023/10/13 04:18:33;;;;;;;18.45;9.07;;;20.30;66.60;;;;;;5036295;28;20053;-43
2023/10/13 04:21:18;;;;;;;18.25;9.50;;;20.30;66.60;;;;;;5037181;28;20091;-44
2023/10/13 04:26:37;;;;;;;15.65;9.10;;;20.40;66.70;;;;;;5043370;28;20134;-47
2023/10/13 04:29:10;;;;;;;20.20;9.05;;;20.40;66.80;;;;;;5036718;28;20056;-43
2023/10/13 04:31:56;;;;;;;21.25;9.10;;;20.40;66.80;;;;;;5038110;28;20599;-44
2023/10/13 04:34:28;;;;;;;69.68;37.92;;;20.40;66.80;;;;;;5036698;28;20056;-51
2023/10/13 04:37:11;;;;;;;63.17;33.22;;;20.40;67.60;;;;;;5040484;28;20445;-47
2023/10/13 04:39:39;;;;;;;107.80;55.25;;;20.40;66.90;;;;;;5038714;28;20267;-47
2023/10/13 04:42:26;;;;;;;26.40;15.38;;;20.40;66.90;;;;;;5040251;28;20433;-50
2023/10/13 04:45:00;;;;;;;17.42;9.25;;;20.40;66.90;;;;;;5039117;28;20049;-51
2023/10/13 04:47:29;;;;;;;;;;;20.40;67.00;;;;;;5038575;28;20049;-48
2023/10/13 04:50:00;;;;;;;18.73;8.30;;;20.50;67.00;;;;;;5038147;28;19925;-47
2023/10/13 04:52:45;;;;;;;13.63;8.45;;;20.40;66.60;;;;;;5038579;28;20060;-52
2023/10/13 04:58:10;;;;;;;16.85;8.85;;;20.40;66.80;;;;;;5034779;28;20047;-50
2023/10/13 05:01:23;;;;;;;16.30;8.35;;;20.50;67.00;;;;;;5037740;28;20056;-51
2023/10/13 05:04:08;;;;;;;68.65;34.78;;;20.40;67.10;;;;;;5037713;28;20049;-51
2023/10/13 05:48:11;;;;;;;8.60;5.78;;;20.50;67.50;;;;;;5012344;28;20053;-46
2023/10/13 05:51:32;;;;;;;9.27;5.32;;;20.60;67.60;;;;;;5039856;28;20067;-44
2023/10/13 06:29:24;;;;;;;16.88;5.65;;;20.70;67.60;;;;;;5047137;28;20067;-45
2023/10/13 06:31:52;;;;;;;9.57;4.70;;;20.70;67.60;;;;;;5043575;28;20053;-43
2023/10/13 06:34:20;;;;;;;15.80;5.32;;;20.70;67.80;;;;;;5043009;28;20056;-43
2023/10/13 06:36:48;;;;;;;14.93;4.60;;;20.70;67.80;;;;;;5044566;28;20049;-46
2023/10/13 06:39:35;;;;;;;10.15;4.80;;;20.80;67.90;;;;;;5044383;28;20075;-46
2023/10/13 06:42:03;;;;;;;11.95;5.03;;;20.80;67.90;;;;;;5044829;28;20410;-45
2023/10/13 06:44:32;;;;;;;11.27;4.82;;;20.80;67.80;;;;;;5043430;28;20053;-45
2023/10/13 06:47:03;;;;;;;15.90;5.15;;;20.80;67.80;;;;;;5041655;28;20492;-49
2023/10/13 06:49:36;;;;;;;12.45;5.45;;;20.90;67.90;;;;;;5042809;28;20170;-49
2023/10/13 06:52:06;;;;;;;12.68;5.05;;;20.90;67.80;;;;;;5023846;28;20063;-46
2023/10/13 06:54:35;;;;;;;15.73;5.47;;;20.90;67.70;;;;;;5044807;28;20057;-48
2023/10/13 06:57:03;;;;;;;17.63;6.15;;;20.90;67.70;;;;;;5042671;28;20378;-49
2023/10/13 06:59:32;;;;;;;22.15;6.22;;;20.90;67.60;;;;;;5042500;28;20056;-52
2023/10/13 07:02:05;;;;;;;20.10;5.72;;;21.00;67.80;;;;;;5040056;28;20516;-50
2023/10/13 07:04:32;;;;;;;12.55;5.57;;;21.00;67.90;;;;;;5042322;28;20053;-51
2023/10/13 07:07:00;;;;;;;21.38;6.85;;;21.00;67.90;;;;;;5042207;28;20049;-47
2023/10/13 07:09:40;;;;;;;14.23;5.75;;;21.00;68.50;;;;;;5043016;28;20485;-48
2023/10/13 07:12:16;;;;;;;14.68;5.18;;;21.00;67.60;;;;;;5042457;28;20063;-50
2023/10/13 07:14:51;;;;;;;16.00;5.40;;;21.00;67.50;;;;;;5043163;28;20064;-48
2023/10/13 07:17:23;;;;;;;16.02;5.45;;;21.10;67.70;;;;;;5042488;28;20052;-50
2023/10/13 07:19:54;;;;;;;16.52;5.15;;;21.10;67.60;;;;;;5040336;28;20115;-51
2023/10/13 07:22:23;;;;;;;18.83;5.15;;;21.10;67.40;;;;;;5040478;28;20395;-49
2023/10/13 07:24:52;;;;;;;13.52;5.35;;;21.10;67.50;;;;;;5043711;28;20061;-52
2023/10/13 07:27:24;;;;;;;17.25;4.88;;;21.10;67.40;;;;;;5041879;28;20481;-50
2023/10/13 07:29:56;;;;;;;14.63;5.03;;;21.10;67.40;;;;;;5042370;28;20060;-46
2023/10/13 07:32:26;;;;;;;13.23;5.15;;;21.10;67.40;;;;;;5043446;28;20060;-51
2023/10/13 07:34:57;;;;;;;13.65;5.22;;;21.10;67.40;;;;;;5041512;28;20053;-51
2023/10/13 07:37:28;;;;;;;16.05;5.35;;;21.10;67.30;;;;;;5042699;28;20049;-48
2023/10/13 07:39:58;;;;;;;22.40;5.80;;;21.10;67.30;;;;;;5042494;28;20056;-47
2023/10/13 07:42:31;;;;;;;16.38;5.25;;;21.20;67.40;;;;;;5042170;28;20068;-47
2023/10/13 07:45:04;;;;;;;13.95;5.15;;;21.20;67.40;;;;;;5040864;28;20057;-50
2023/10/13 07:47:33;;;;;;;12.27;4.80;;;21.20;67.50;;;;;;5039380;28;20064;-50
2023/10/13 07:50:36;;;;;;;19.27;5.10;;;21.30;67.40;;;;;;5040747;28;20057;-48
2023/10/13 07:53:18;;;;;;;13.52;4.72;;;21.30;67.30;;;;;;5036326;28;20710;-49
2023/10/13 07:55:49;;;;;;;15.43;5.30;;;21.30;67.10;;;;;;5040158;28;20497;-50
2023/10/13 07:58:30;;;;;;;16.02;4.85;;;21.40;66.70;;;;;;5040862;28;20052;-50
2023/10/13 08:01:08;;;;;;;20.45;5.35;;;21.40;66.60;;;;;;5041157;28;20498;-47
2023/10/13 08:03:43;;;;;;;17.83;5.22;;;21.40;66.50;;;;;;5036867;28;20060;-48
2023/10/13 08:06:20;;;;;;;14.10;5.00;;;21.40;66.40;;;;;;5043083;28;20398;-48
2023/10/13 08:08:51;;;;;;;15.02;5.50;;;21.40;66.10;;;;;;5042822;28;20419;-47
2023/10/13 08:11:30;;;;;;;13.68;5.22;;;21.40;66.00;;;;;;5041544;28;20505;-43
2023/10/13 08:14:00;;;;;;;17.98;5.10;;;21.40;66.00;;;;;;5042904;28;20064;-45
2023/10/13 08:16:45;;;;;;;16.92;5.10;;;21.50;65.60;;;;;;5041752;28;20060;-48
2023/10/13 08:19:15;;;;;;;15.02;5.20;;;21.40;65.30;;;;;;5042723;28;20056;-45
2023/10/13 08:21:49;;;;;;;20.33;5.43;;;21.50;65.50;;;;;;5042649;28;20064;-45
2023/10/13 08:24:24;;;;;;;15.45;4.90;;;21.50;65.40;;;;;;5042736;28;20059;-44
2023/10/13 08:26:57;;;;;;;13.40;4.88;;;21.50;65.40;;;;;;5041012;28;20489;-43
2023/10/13 08:32:36;;;;;;;21.90;5.25;;;21.60;65.20;;;;;;5007978;28;20049;-45
2023/10/13 08:35:25;;;;;;;11.38;5.07;;;21.60;65.00;;;;;;5041686;28;20057;-44
2023/10/13 08:38:04;;;;;;;13.23;5.20;;;21.70;64.70;;;;;;5038425;28;20045;-46
2023/10/13 08:43:17;;;;;;;16.52;5.72;;;21.70;64.10;;;;;;5048818;28;20064;-45
2023/10/13 08:45:53;;;;;;;11.85;5.28;;;21.80;64.70;;;;;;5041853;28;20056;-42
2023/10/13 08:48:26;;;;;;;18.88;5.25;;;21.70;63.80;;;;;;5039322;28;20386;-49
2023/10/13 08:50:55;;;;;;;16.20;5.50;;;21.80;63.50;;;;;;5040924;28;20049;-42
2023/10/13 08:53:28;;;;;;;15.13;6.38;;;21.80;63.20;;;;;;5040777;28;20048;-47
2023/10/13 08:56:05;;;;;;;14.65;5.50;;;21.80;62.90;;;;;;5041197;28;20729;-42
2023/10/13 09:01:37;;;;;;;15.55;5.43;;;21.80;62.60;;;;;;4959336;28;20054;-42
2023/10/13 09:07:00;;;;;;;15.15;5.63;;;21.80;62.20;;;;;;5038298;28;20060;-47
2023/10/13 09:09:27;;;;;;;15.88;5.72;;;21.80;62.00;;;;;;5040719;28;20071;-45
2023/10/13 09:12:07;;;;;;;16.58;6.28;;;21.80;62.10;;;;;;5040448;28;20052;-45
2023/10/13 09:14:37;;;;;;;16.38;5.93;;;21.80;62.10;;;;;;5040638;28;20571;-46
2023/10/13 09:17:11;;;;;;;15.85;5.93;;;21.80;61.80;;;;;;5039284;28;20048;-41
2023/10/13 09:19:48;;;;;;;19.30;6.60;;;21.80;61.70;;;;;;5039735;28;20065;-44
2023/10/13 09:22:35;;;;;;;17.27;6.22;;;21.80;61.20;;;;;;5039565;28;20048;-48
2023/10/13 09:25:02;;;;;;;15.82;6.40;;;21.80;61.40;;;;;;5040526;28;20068;-41
2023/10/13 09:27:32;;;;;;;17.15;5.57;;;21.80;61.40;;;;;;5040169;28;20485;-42
2023/10/13 09:30:09;;;;;;;11.70;6.10;;;21.80;61.20;;;;;;5040489;28;20508;-45
2023/10/13 09:32:46;;;;;;;18.08;6.60;;;21.80;61.20;;;;;;5038534;28;20428;-45
2023/10/13 09:35:18;;;;;;;20.52;7.00;;;21.90;60.30;;;;;;5039677;28;20053;-42
2023/10/13 09:37:47;;;;;;;15.95;6.45;;;21.90;60.60;;;;;;5036914;28;20059;-44
2023/10/13 09:40:29;;;;;;;15.75;7.72;;;21.90;60.40;;;;;;5038867;28;20055;-46
2023/10/13 09:42:59;;;;;;;17.08;7.00;;;21.90;60.60;;;;;;5038484;28;20051;-45
2023/10/13 09:45:36;;;;;;;13.85;6.45;;;22.00;60.00;;;;;;5025092;28;20053;-44
2023/10/13 09:48:16;;;;;;;14.65;7.00;;;22.00;59.60;;;;;;5040121;28;20051;-45
2023/10/13 09:50:46;;;;;;;20.42;7.18;;;22.00;59.50;;;;;;5041217;28;20060;-46
2023/10/13 09:53:14;;;;;;;11.82;6.25;;;22.10;59.10;;;;;;5038185;28;20060;-43
2023/10/13 09:55:45;;;;;;;13.02;6.47;;;22.10;58.70;;;;;;5044206;28;20048;-47
2023/10/13 09:58:14;;;;;;;16.60;6.70;;;22.20;58.80;;;;;;5044048;28;20048;-46
2023/10/13 10:00:48;;;;;;;13.30;6.15;;;22.20;58.70;;;;;;5040486;28;20048;-47
2023/10/13 10:03:29;;;;;;;15.07;7.25;;;22.20;58.30;;;;;;5042081;28;20413;-45
2023/10/13 10:06:03;;;;;;;15.57;5.95;;;22.30;58.10;;;;;;5042731;28;20053;-42
2023/10/13 10:08:33;;;;;;;;;;;22.30;58.10;;;;;;5041304;28;20056;-47
2023/10/13 10:11:31;;;;;;;19.13;6.57;;;22.40;58.40;;;;;;5040957;28;19927;-44
2023/10/13 10:14:08;;;;;;;12.57;6.55;;;22.50;58.10;;;;;;5041758;28;20057;-43
2023/10/13 10:16:48;;;;;;;15.38;6.18;;;22.50;57.30;;;;;;5040704;28;20060;-46
2023/10/13 10:19:18;;;;;;;12.30;6.07;;;22.60;57.50;;;;;;5042194;28;20071;-42
2023/10/13 10:21:45;;;;;;;16.08;6.53;;;22.60;57.50;;;;;;5039140;28;20051;-45
2023/10/13 10:24:23;;;;;;;11.07;6.13;;;22.70;57.60;;;;;;5041666;28;20053;-49
2023/10/13 10:26:54;;;;;;;12.88;6.30;;;22.70;57.20;;;;;;5040891;28;20084;-51
2023/10/13 10:29:21;;;;;;;9.80;6.07;;;22.80;57.40;;;;;;5040082;28;20061;-49
2023/10/13 10:31:50;;;;;;;15.75;6.40;;;22.90;57.10;;;;;;5040323;28;20053;-50
2023/10/13 10:34:19;;;;;;;14.32;6.30;;;22.90;56.70;;;;;;5039822;28;20961;-52
2023/10/13 10:36:48;;;;;;;13.25;6.10;;;23.00;56.10;;;;;;5039525;28;20045;-51
2023/10/13 10:39:17;;;;;;;9.88;6.05;;;23.10;55.90;;;;;;5043122;28;20056;-52
2023/10/13 10:41:52;;;;;;;19.13;6.30;;;23.10;55.80;;;;;;5040919;28;20056;-52
2023/10/13 10:44:33;;;;;;;15.57;6.70;;;23.10;55.60;;;;;;5042385;28;21561;-49
2023/10/13 10:47:19;;;;;;;15.35;6.38;;;23.20;55.60;;;;;;5041917;28;20061;-52
2023/10/13 10:49:49;;;;;;;14.57;6.13;;;23.30;55.20;;;;;;5041341;28;20401;-47
2023/10/13 10:52:21;;;;;;;13.43;6.82;;;23.30;55.20;;;;;;5040502;28;20057;-53
2023/10/13 10:54:59;;;;;;;15.70;6.55;;;23.40;55.00;;;;;;5040686;28;20057;-51
2023/10/13 10:57:28;;;;;;;13.93;6.00;;;23.40;54.80;;;;;;5041596;28;20424;-53
2023/10/13 11:00:10;;;;;;;12.38;5.68;;;23.50;55.00;;;;;;5041986;28;20064;-50
2023/10/13 11:02:38;;;;;;;10.35;5.85;;;23.60;54.80;;;;;;5040952;28;20067;-53
2023/10/13 11:05:09;;;;;;;11.05;6.03;;;23.60;54.50;;;;;;5040337;28;20056;-52
2023/10/13 11:07:37;;;;;;;11.52;6.38;;;23.70;54.30;;;;;;5041307;28;20057;-55
2023/10/13 11:10:18;;;;;;;19.65;6.75;;;23.70;54.00;;;;;;5040452;28;20052;-56
2023/10/13 11:12:55;;;;;;;19.75;6.25;;;23.70;53.20;;;;;;5039413;28;20425;-53
2023/10/13 11:15:33;;;;;;;20.05;5.88;;;23.80;52.60;;;;;;5040365;28;20045;-54
2023/10/13 11:18:00;;;;;;;21.83;6.47;;;23.80;52.40;;;;;;5040201;28;20072;-49
2023/10/13 11:20:33;;;;;;;33.05;6.43;;;23.80;52.50;;;;;;5028952;28;20041;-54
2023/10/13 11:23:04;;;;;;;18.67;6.22;;;23.90;52.30;;;;;;5039338;28;20041;-52
2023/10/13 11:25:35;;;;;;;19.90;6.90;;;23.90;52.00;;;;;;5040094;28;20504;-54
2023/10/13 11:28:17;;;;;;;19.80;5.63;;;24.00;51.80;;;;;;5041343;28;20053;-55
2023/10/13 11:30:49;;;;;;;20.73;5.68;;;24.00;51.20;;;;;;5041687;28;20392;-54
2023/10/13 11:33:19;;;;;;;17.73;6.05;;;24.10;51.60;;;;;;5037552;28;20059;-48
2023/10/13 11:35:55;;;;;;;16.70;5.57;;;24.10;51.30;;;;;;5040611;28;20061;-51
2023/10/13 11:38:26;;;;;;;21.27;5.47;;;24.20;50.80;;;;;;5039774;28;20053;-54
2023/10/13 11:41:14;;;;;;;15.13;5.70;;;24.20;49.90;;;;;;5042151;28;20576;-55
2023/10/13 11:44:04;;;;;;;13.85;5.35;;;24.30;50.00;;;;;;5034896;28;20049;-54
2023/10/13 11:49:31;;;;;;;13.45;5.88;;;24.40;49.80;;;;;;5045693;28;20064;-53
2023/10/13 11:54:42;;;;;;;16.50;5.85;;;24.40;49.60;;;;;;5032754;28;20059;-54
2023/10/13 11:57:10;;;;;;;9.10;5.57;;;24.40;49.20;;;;;;5042282;28;20071;-55
2023/10/13 11:59:44;;;;;;;17.20;6.05;;;24.40;49.30;;;;;;5041344;28;20060;-56
2023/10/13 12:04:59;;;;;;;13.68;6.00;;;24.50;49.10;;;;;;5046204;28;20595;-54
2023/10/13 12:07:42;;;;;;;12.13;5.28;;;24.50;49.20;;;;;;5040174;28;20060;-52
2023/10/13 12:10:16;;;;;;;13.60;5.63;;;24.50;49.20;;;;;;5039974;28;20053;-54
2023/10/13 12:12:46;;;;;;;11.52;5.10;;;24.60;49.10;;;;;;5039945;28;20049;-52
2023/10/13 12:15:30;;;;;;;17.50;5.40;;;24.60;49.50;;;;;;5038856;28;20052;-47
2023/10/13 12:17:58;;;;;;;10.68;5.47;;;24.70;49.40;;;;;;5038668;28;20072;-53
2023/10/13 12:20:33;;;;;;;15.88;5.47;;;24.70;49.40;;;;;;5037670;28;20052;-57
2023/10/13 12:23:15;;;;;;;15.20;5.57;;;24.70;48.90;;;;;;5037581;28;20079;-50
2023/10/13 12:25:54;;;;;;;18.88;5.78;;;24.70;48.80;;;;;;5041298;28;20497;-53
2023/10/13 12:28:26;;;;;;;18.23;5.88;;;24.80;48.50;;;;;;5040165;28;20053;-51
2023/10/13 12:30:57;;;;;;;11.15;4.75;;;24.90;48.50;;;;;;5039840;28;20049;-56
2023/10/13 12:33:26;;;;;;;18.85;5.65;;;24.90;48.70;;;;;;5038629;28;20057;-55
2023/10/13 12:36:14;;;;;;;16.45;5.97;;;24.90;48.80;;;;;;5038868;28;20045;-50
2023/10/13 12:48:55;;;;;;;11.02;5.43;;;24.90;48.50;;;;;;5041190;28;20432;-55
2023/10/13 12:50:07;;;;;;;23.48;5.43;;;25.10;47.50;;;;;;5046509;28;20059;-41
2023/10/13 12:52:34;;;;;;;15.57;6.07;;;25.10;47.20;;;;;;5033587;28;20061;-50
2023/10/13 12:55:07;;;;;;;18.52;6.03;;;25.10;47.00;;;;;;5039634;28;20052;-51
2023/10/13 12:57:42;;;;;;;10.85;5.10;;;25.10;46.90;;;;;;5037018;28;20060;-47
2023/10/13 13:00:21;;;;;;;20.08;5.80;;;25.10;46.90;;;;;;5039930;28;20049;-45
2023/10/13 13:02:51;;;;;;;20.33;5.47;;;25.10;46.20;;;;;;5035808;28;20063;-45
2023/10/13 13:05:22;;;;;;;13.00;4.55;;;25.10;46.30;;;;;;5038795;28;20048;-44
2023/10/13 13:07:53;;;;;;;23.60;5.93;;;25.20;46.60;;;;;;5040501;28;20076;-40
2023/10/13 13:10:34;;;;;;;13.75;5.90;;;25.20;46.60;;;;;;5022550;28;20421;-49
2023/10/13 13:13:04;;;;;;;10.70;4.70;;;25.20;46.90;;;;;;5039522;28;20056;-47
2023/10/13 13:15:31;;;;;;;14.98;5.53;;;25.20;46.90;;;;;;5039634;28;20064;-43
2023/10/13 13:18:09;;;;;;;16.88;5.70;;;25.20;46.80;;;;;;5038174;28;20055;-42
2023/10/13 13:20:39;;;;;;;17.52;6.55;;;25.20;46.00;;;;;;5031001;28;20064;-47
2023/10/13 13:23:06;;;;;;;14.82;5.00;;;25.30;46.40;;;;;;5039173;28;20057;-46
2023/10/13 13:25:42;;;;;;;14.40;5.28;;;25.30;46.60;;;;;;5040643;28;20068;-47
2023/10/13 13:28:10;;;;;;;20.17;5.35;;;25.30;46.30;;;;;;5039973;28;20485;-47
2023/10/13 13:30:38;;;;;;;16.15;5.38;;;25.30;46.80;;;;;;5038962;28;20072;-47
2023/10/13 13:33:11;;;;;;;13.52;5.18;;;25.20;46.60;;;;;;5035917;28;20072;-46
2023/10/13 13:35:38;;;;;;;19.95;5.90;;;25.20;46.20;;;;;;5036861;28;20049;-41
2023/10/13 13:38:16;;;;;;;18.75;5.75;;;25.20;46.10;;;;;;5035123;28;20083;-47
2023/10/13 13:40:48;;;;;;;17.27;5.38;;;25.20;46.00;;;;;;5033808;28;20381;-41
2023/10/13 13:43:31;;;;;;;24.05;5.53;;;25.20;46.00;;;;;;5038412;28;20052;-43
2023/10/13 13:46:00;;;;;;;15.57;5.57;;;25.20;46.20;;;;;;5040423;28;20066;-48
2023/10/13 13:48:28;;;;;;;19.40;5.70;;;25.20;46.20;;;;;;5039933;28;20512;-44
2023/10/13 13:51:03;;;;;;;22.23;5.97;;;25.20;46.20;;;;;;5038533;28;20450;-48
2023/10/13 13:53:34;;;;;;;18.00;5.78;;;25.20;46.00;;;;;;5038642;28;20061;-44
2023/10/13 13:56:03;;;;;;;38.03;5.90;;;25.20;46.30;;;;;;5037263;28;20513;-46
2023/10/13 13:58:31;;;;;;;15.43;4.82;;;25.10;45.90;;;;;;5037391;28;20073;-44
2023/10/13 14:01:11;;;;;;;22.27;5.78;;;25.10;46.00;;;;;;5038525;28;20052;-47
2023/10/13 14:03:44;;;;;;;18.30;4.85;;;25.10;46.10;;;;;;5033173;28;20497;-49
2023/10/13 14:06:17;;;;;;;13.38;5.55;;;25.10;46.00;;;;;;5039881;28;20056;-46
2023/10/13 14:08:48;;;;;;;17.48;6.25;;;25.10;45.70;;;;;;5040337;28;20476;-44
2023/10/13 14:12:25;;;;;;;16.38;6.15;;;25.10;45.90;;;;;;5038593;28;20051;-46
2023/10/13 14:14:13;;;;;;;16.67;5.35;;;25.00;45.90;;;;;;5038737;28;20061;-42
2023/10/13 14:16:45;;;;;;;13.98;5.05;;;25.00;46.10;;;;;;5040041;28;20052;-44
2023/10/13 14:19:12;;;;;;;16.08;5.30;;;25.00;46.30;;;;;;5038746;28;20053;-48
2023/10/13 14:21:40;;;;;;;12.23;4.85;;;25.00;46.30;;;;;;5037929;28;20429;-45
2023/10/13 14:24:14;;;;;;;13.70;4.45;;;25.10;46.50;;;;;;5040041;28;20477;-42
2023/10/13 14:26:43;;;;;;;15.02;5.28;;;25.00;46.40;;;;;;5037806;28;20069;-42
2023/10/13 14:29:14;;;;;;;19.13;5.80;;;25.00;46.50;;;;;;5038921;28;20059;-44
2023/10/13 14:31:43;;;;;;;16.20;5.43;;;25.00;47.00;;;;;;5041288;28;20750;-45
2023/10/13 14:34:11;;;;;;;15.68;5.10;;;25.00;46.40;;;;;;5040952;28;20068;-47
2023/10/13 14:36:38;;;;;;;15.60;5.10;;;25.00;46.40;;;;;;5038711;28;20053;-42
2023/10/13 14:39:09;;;;;;;14.02;4.88;;;25.00;46.40;;;;;;5040536;28;20041;-47
2023/10/13 14:41:37;;;;;;;13.95;5.15;;;25.00;46.40;;;;;;5039384;28;21256;-44
2023/10/13 14:44:07;;;;;;;10.80;4.78;;;25.00;46.50;;;;;;5042567;28;20528;-46
2023/10/13 14:46:36;;;;;;;12.77;5.07;;;24.90;46.40;;;;;;5040614;28;20451;-42
2023/10/13 14:49:04;;;;;;;14.55;5.00;;;24.90;46.20;;;;;;5037046;28;20053;-43
2023/10/13 14:51:31;;;;;;;15.45;4.53;;;24.90;46.20;;;;;;5039415;28;20060;-45
2023/10/13 14:53:59;;;;;;;16.38;5.40;;;24.90;46.30;;;;;;5040674;28;20405;-43
2023/10/13 14:56:28;;;;;;;17.27;4.85;;;24.90;46.30;;;;;;5040025;28;20497;-44
2023/10/13 14:58:55;;;;;;;15.30;5.57;;;24.90;46.30;;;;;;5041492;28;20056;-43
2023/10/13 15:01:26;;;;;;;12.23;5.10;;;24.90;46.30;;;;;;5038970;28;20057;-46
2023/10/13 15:03:55;;;;;;;13.25;5.22;;;24.90;46.30;;;;;;5039616;28;20112;-45
2023/10/13 15:06:25;;;;;;;10.80;5.03;;;24.90;46.30;;;;;;5039960;28;20061;-51
2023/10/13 15:08:54;;;;;;;15.13;4.85;;;24.90;45.90;;;;;;5040797;28;20052;-54